Time,TemperatureF,DewpointF,PressureIn,WindDirection,WindDirectionDegrees,WindSpeedMPH,WindSpeedGustMPH,Humidity,HourlyPrecipIn,Conditions,Clouds,dailyrainin,SoftwareType,DateUTC
2013-07-07 00:02:00,68.7,64.0,29.96,South,184,2.0,4.0,85,0.00,,,0.00,meteohub,2013-07-07 05:02:00,
2013-07-07 00:07:00,68.7,64.4,29.96,South,184,4.0,5.0,86,0.00,,,0.00,meteohub,2013-07-07 05:07:00,
2013-07-07 00:12:00,69.1,64.8,29.96,South,184,4.0,6.0,86,0.00,,,0.00,meteohub,2013-07-07 05:12:00,
2013-07-07 00:17:00,69.1,64.8,29.96,South,184,3.0,6.0,86,0.00,,,0.00,meteohub,2013-07-07 05:17:00,
2013-07-07 00:22:00,69.3,64.9,29.95,South,184,3.0,6.0,86,0.00,,,0.00,meteohub,2013-07-07 05:22:00,
2013-07-07 00:27:00,69.4,65.1,29.95,South,184,3.0,7.0,86,0.00,,,0.00,meteohub,2013-07-07 05:27:00,
2013-07-07 00:32:00,69.4,65.1,29.95,South,184,3.0,7.0,86,0.00,,,0.00,meteohub,2013-07-07 05:32:00,
2013-07-07 00:37:00,69.3,65.3,29.95,South,184,2.0,7.0,87,0.00,,,0.00,meteohub,2013-07-07 05:37:00,
2013-07-07 00:42:00,69.3,65.3,29.95,South,184,3.0,7.0,87,0.00,,,0.00,meteohub,2013-07-07 05:42:00,
2013-07-07 00:47:00,69.3,65.3,29.94,South,184,2.0,7.0,87,0.00,,,0.00,meteohub,2013-07-07 05:47:00,
2013-07-07 00:52:00,69.1,65.1,29.94,South,184,3.0,6.0,87,0.00,,,0.00,meteohub,2013-07-07 05:52:00,
2013-07-07 00:57:00,69.1,65.1,29.95,South,184,3.0,6.0,87,0.00,,,0.00,meteohub,2013-07-07 05:57:00,
2013-07-07 01:02:00,68.7,64.9,29.94,South,189,4.0,6.0,88,0.00,,,0.00,meteohub,2013-07-07 06:02:00,
2013-07-07 01:07:00,68.7,64.9,29.94,South,189,3.0,6.0,88,0.00,,,0.00,meteohub,2013-07-07 06:07:00,
2013-07-07 01:12:00,68.5,64.8,29.95,South,189,3.0,6.0,88,0.00,,,0.00,meteohub,2013-07-07 06:12:00,
2013-07-07 01:17:00,68.5,64.8,29.94,South,189,4.0,6.0,88,0.00,,,0.00,meteohub,2013-07-07 06:17:00,
2013-07-07 01:22:00,68.4,64.6,29.94,South,189,3.0,6.0,88,0.00,,,0.00,meteohub,2013-07-07 06:22:00,
2013-07-07 01:27:00,67.8,64.2,29.94,South,189,2.0,6.0,88,0.00,,,0.00,meteohub,2013-07-07 06:27:00,
2013-07-07 01:32:00,67.5,64.0,29.94,South,189,3.0,6.0,89,0.00,,,0.00,meteohub,2013-07-07 06:32:00,
2013-07-07 01:37:00,67.5,64.0,29.94,South,189,2.0,4.0,89,0.00,,,0.00,meteohub,2013-07-07 06:37:00,
2013-07-07 01:42:00,67.3,63.9,29.94,South,189,2.0,4.0,89,0.00,,,0.00,meteohub,2013-07-07 06:42:00,
2013-07-07 01:47:00,67.3,63.9,29.93,South,189,3.0,4.0,89,0.00,,,0.00,meteohub,2013-07-07 06:47:00,
2013-07-07 01:52:00,67.1,63.7,29.93,South,189,2.0,4.0,89,0.00,,,0.00,meteohub,2013-07-07 06:52:00,
2013-07-07 01:57:00,66.9,63.9,29.93,South,189,2.0,5.0,90,0.00,,,0.00,meteohub,2013-07-07 06:57:00,
2013-07-07 02:02:00,66.9,63.9,29.93,South,189,3.0,5.0,90,0.00,,,0.00,meteohub,2013-07-07 07:02:00,
2013-07-07 02:07:00,66.9,63.9,29.93,South,189,1.0,5.0,90,0.00,,,0.00,meteohub,2013-07-07 07:07:00,
2013-07-07 02:12:00,66.9,63.9,29.93,South,189,3.0,5.0,90,0.00,,,0.00,meteohub,2013-07-07 07:12:00,
2013-07-07 02:17:00,67.3,63.9,29.93,South,189,2.0,5.0,89,0.00,,,0.00,meteohub,2013-07-07 07:17:00,
2013-07-07 02:22:00,67.3,63.9,29.93,South,189,3.0,6.0,89,0.00,,,0.00,meteohub,2013-07-07 07:22:00,
2013-07-07 02:27:00,67.3,63.9,29.93,South,189,5.0,6.0,89,0.00,,,0.00,meteohub,2013-07-07 07:27:00,
2013-07-07 02:32:00,67.3,63.9,29.93,South,189,5.0,6.0,89,0.00,,,0.00,meteohub,2013-07-07 07:32:00,
2013-07-07 02:37:00,67.3,63.9,29.93,South,189,2.0,7.0,89,0.00,,,0.00,meteohub,2013-07-07 07:37:00,
2013-07-07 02:42:00,66.9,63.5,29.93,South,189,3.0,7.0,89,0.00,,,0.00,meteohub,2013-07-07 07:42:00,
2013-07-07 02:47:00,66.9,63.9,29.93,South,189,4.0,6.0,90,0.00,,,0.00,meteohub,2013-07-07 07:47:00,
2013-07-07 02:52:00,66.7,63.7,29.93,South,189,2.0,5.0,90,0.00,,,0.00,meteohub,2013-07-07 07:52:00,
2013-07-07 02:57:00,66.7,63.7,29.93,South,189,1.0,5.0,90,0.00,,,0.00,meteohub,2013-07-07 07:57:00,
2013-07-07 03:02:00,66.7,63.7,29.93,South,189,2.0,5.0,90,0.00,,,0.00,meteohub,2013-07-07 08:02:00,
2013-07-07 03:07:00,66.6,63.5,29.93,South,189,3.0,4.0,90,0.00,,,0.00,meteohub,2013-07-07 08:07:00,
2013-07-07 03:12:00,66.4,63.3,29.93,South,189,4.0,6.0,90,0.00,,,0.00,meteohub,2013-07-07 08:12:00,
2013-07-07 03:17:00,66.4,63.7,29.93,South,189,4.0,6.0,91,0.00,,,0.00,meteohub,2013-07-07 08:17:00,
2013-07-07 03:22:00,66.6,63.9,29.93,South,189,3.0,6.0,91,0.00,,,0.00,meteohub,2013-07-07 08:22:00,
2013-07-07 03:27:00,66.6,63.9,29.93,South,186,7.0,7.0,91,0.00,,,0.00,meteohub,2013-07-07 08:27:00,
2013-07-07 03:32:00,66.9,64.2,29.93,South,186,3.0,8.0,91,0.00,,,0.00,meteohub,2013-07-07 08:32:00,
2013-07-07 03:37:00,66.9,64.2,29.93,South,182,5.0,8.0,91,0.00,,,0.00,meteohub,2013-07-07 08:37:00,
2013-07-07 03:42:00,66.9,64.2,29.93,South,182,6.0,8.0,91,0.00,,,0.00,meteohub,2013-07-07 08:42:00,
2013-07-07 03:47:00,66.9,64.2,29.93,South,182,4.0,7.0,91,0.00,,,0.00,meteohub,2013-07-07 08:47:00,
2013-07-07 03:52:00,66.7,64.0,29.93,South,187,6.0,7.0,91,0.00,,,0.00,meteohub,2013-07-07 08:52:00,
2013-07-07 03:57:00,66.9,64.2,29.93,SSW,194,4.0,8.0,91,0.00,,,0.00,meteohub,2013-07-07 08:57:00,
2013-07-07 04:02:00,66.9,64.6,29.93,SSW,192,5.0,9.0,92,0.00,,,0.00,meteohub,2013-07-07 09:02:00,
2013-07-07 04:07:00,67.1,64.8,29.93,SSW,192,2.0,9.0,92,0.00,,,0.00,meteohub,2013-07-07 09:07:00,
2013-07-07 04:12:00,67.1,64.8,29.93,SSW,192,3.0,7.0,92,0.00,,,0.00,meteohub,2013-07-07 09:12:00,
2013-07-07 04:17:00,66.9,64.6,29.93,South,184,5.0,7.0,92,0.00,,,0.00,meteohub,2013-07-07 09:17:00,
2013-07-07 04:22:00,66.9,64.6,29.93,South,184,5.0,7.0,92,0.00,,,0.00,meteohub,2013-07-07 09:22:00,
2013-07-07 04:27:00,66.7,64.4,29.93,South,184,3.0,7.0,92,0.00,,,0.00,meteohub,2013-07-07 09:27:00,
2013-07-07 04:32:00,66.7,64.4,29.93,South,184,3.0,7.0,92,0.00,,,0.00,meteohub,2013-07-07 09:32:00,
2013-07-07 04:37:00,66.6,64.4,29.93,South,184,5.0,6.0,93,0.00,,,0.00,meteohub,2013-07-07 09:37:00,
2013-07-07 04:42:00,66.7,64.6,29.93,South,184,3.0,7.0,93,0.00,,,0.00,meteohub,2013-07-07 09:42:00,
2013-07-07 04:47:00,66.6,64.4,29.93,South,184,5.0,7.0,93,0.00,,,0.00,meteohub,2013-07-07 09:47:00,
2013-07-07 04:52:00,66.6,64.4,29.93,South,184,7.0,8.0,93,0.00,,,0.00,meteohub,2013-07-07 09:52:00,
2013-07-07 04:57:00,66.6,64.4,29.93,South,184,5.0,8.0,93,0.00,,,0.00,meteohub,2013-07-07 09:57:00,
2013-07-07 05:02:00,66.6,64.8,29.93,South,184,5.0,8.0,94,0.00,,,0.00,meteohub,2013-07-07 10:02:00,
2013-07-07 05:07:00,66.7,64.9,29.93,South,187,5.0,7.0,94,0.00,,,0.00,meteohub,2013-07-07 10:07:00,
2013-07-07 05:12:00,66.7,64.9,29.93,South,189,6.0,8.0,94,0.00,,,0.00,meteohub,2013-07-07 10:12:00,
2013-07-07 05:17:00,66.7,64.9,29.93,South,189,5.0,8.0,94,0.00,,,0.00,meteohub,2013-07-07 10:17:00,
2013-07-07 05:22:00,66.7,64.9,29.93,South,189,3.0,8.0,94,0.00,,,0.00,meteohub,2013-07-07 10:22:00,
2013-07-07 05:27:00,66.7,64.9,29.93,South,190,0.0,7.0,94,0.00,,,0.00,meteohub,2013-07-07 10:27:00,
2013-07-07 05:32:00,66.9,65.1,29.93,South,189,0.0,7.0,94,0.00,,,0.00,meteohub,2013-07-07 10:32:00,
2013-07-07 05:37:00,66.9,65.1,29.93,South,190,3.0,5.0,94,0.00,,,0.00,meteohub,2013-07-07 10:37:00,
2013-07-07 05:42:00,66.9,65.1,29.93,South,189,6.0,6.0,94,0.00,,,0.00,meteohub,2013-07-07 10:42:00,
2013-07-07 05:47:00,66.9,65.1,29.93,South,189,3.0,6.0,94,0.00,,,0.00,meteohub,2013-07-07 10:47:00,
2013-07-07 05:52:00,66.9,65.1,29.94,South,189,4.0,6.0,94,0.00,,,0.00,meteohub,2013-07-07 10:52:00,
2013-07-07 05:57:00,67.1,65.3,29.94,South,189,3.0,7.0,94,0.00,,,0.00,meteohub,2013-07-07 10:57:00,
2013-07-07 06:02:00,67.3,65.5,29.94,South,186,7.0,8.0,94,0.00,,,0.00,meteohub,2013-07-07 11:02:00,
2013-07-07 06:07:00,67.5,65.7,29.93,South,175,6.0,8.0,94,0.00,,,0.00,meteohub,2013-07-07 11:07:00,
2013-07-07 06:12:00,67.5,65.7,29.93,South,186,6.0,9.0,94,0.00,,,0.00,meteohub,2013-07-07 11:12:00,
2013-07-07 06:17:00,67.6,65.8,29.94,South,188,7.0,9.0,94,0.00,,,0.00,meteohub,2013-07-07 11:17:00,
2013-07-07 06:22:00,67.8,66.0,29.94,South,189,4.0,9.0,94,0.00,,,0.00,meteohub,2013-07-07 11:22:00,
2013-07-07 06:27:00,68.2,66.4,29.94,South,188,3.0,9.0,94,0.00,,,0.00,meteohub,2013-07-07 11:27:00,
2013-07-07 06:32:00,68.4,66.6,29.94,SSW,194,5.0,9.0,94,0.00,,,0.00,meteohub,2013-07-07 11:32:00,
2013-07-07 06:37:00,68.5,66.7,29.93,South,190,4.0,9.0,94,0.00,,,0.00,meteohub,2013-07-07 11:37:00,
2013-07-07 06:42:00,68.9,67.1,29.93,South,190,5.0,8.0,94,0.00,,,0.00,meteohub,2013-07-07 11:42:00,
2013-07-07 06:47:00,69.1,66.9,29.93,South,191,10.0,10.0,93,0.00,,,0.00,meteohub,2013-07-07 11:47:00,
2013-07-07 06:52:00,69.3,67.1,29.93,South,188,7.0,10.0,93,0.00,,,0.00,meteohub,2013-07-07 11:52:00,
2013-07-07 06:57:00,69.4,67.3,29.93,SSW,198,6.0,10.0,93,0.00,,,0.00,meteohub,2013-07-07 11:57:00,
2013-07-07 07:02:00,69.6,67.3,29.93,SSW,198,7.0,10.0,92,0.00,,,0.00,meteohub,2013-07-07 12:02:00,
2013-07-07 07:07:00,69.8,67.3,29.93,South,190,7.0,11.0,92,0.00,,,0.00,meteohub,2013-07-07 12:07:00,
2013-07-07 07:12:00,70.0,67.5,29.93,SSW,201,9.0,11.0,92,0.00,,,0.00,meteohub,2013-07-07 12:12:00,
2013-07-07 07:17:00,70.2,67.6,29.93,SSW,197,7.0,11.0,92,0.00,,,0.00,meteohub,2013-07-07 12:17:00,
2013-07-07 07:22:00,70.3,67.6,29.93,SSW,209,6.0,9.0,91,0.00,,,0.00,meteohub,2013-07-07 12:22:00,
2013-07-07 07:27:00,70.7,68.0,29.93,SSW,207,8.0,10.0,91,0.00,,,0.00,meteohub,2013-07-07 12:27:00,
2013-07-07 07:32:00,70.9,68.2,29.93,SSW,213,5.0,10.0,91,0.00,,,0.00,meteohub,2013-07-07 12:32:00,
2013-07-07 07:37:00,71.1,68.0,29.93,SSW,196,7.0,10.0,90,0.00,,,0.00,meteohub,2013-07-07 12:37:00,
2013-07-07 07:42:00,71.2,68.2,29.93,South,184,5.0,10.0,90,0.00,,,0.00,meteohub,2013-07-07 12:42:00,
2013-07-07 07:47:00,71.4,68.4,29.93,SSW,210,6.0,10.0,90,0.00,,,0.00,meteohub,2013-07-07 12:47:00,
2013-07-07 07:52:00,71.8,68.4,29.93,SSW,203,7.0,10.0,89,0.00,,,0.00,meteohub,2013-07-07 12:52:00,
2013-07-07 07:57:00,72.0,68.5,29.93,South,191,5.0,11.0,89,0.00,,,0.00,meteohub,2013-07-07 12:57:00,
2013-07-07 08:02:00,72.3,68.9,29.93,South,184,9.0,12.0,89,0.00,,,0.00,meteohub,2013-07-07 13:02:00,
2013-07-07 08:07:00,72.7,68.9,29.93,SSW,197,8.0,12.0,88,0.00,,,0.00,meteohub,2013-07-07 13:07:00,
2013-07-07 08:12:00,73.2,69.1,29.92,SSW,198,7.0,12.0,87,0.00,,,0.00,meteohub,2013-07-07 13:12:00,
2013-07-07 08:17:00,73.6,69.1,29.93,South,188,8.0,12.0,86,0.00,,,0.00,meteohub,2013-07-07 13:17:00,
2013-07-07 08:22:00,73.8,69.3,29.93,SW,219,9.0,11.0,86,0.00,,,0.00,meteohub,2013-07-07 13:22:00,
2013-07-07 08:27:00,73.9,69.1,29.93,South,174,7.0,11.0,85,0.00,,,0.00,meteohub,2013-07-07 13:27:00,
2013-07-07 08:32:00,74.1,69.3,29.93,SSW,192,5.0,13.0,85,0.00,,,0.00,meteohub,2013-07-07 13:32:00,
2013-07-07 08:37:00,73.9,69.4,29.93,SSW,192,7.0,13.0,86,0.00,,,0.00,meteohub,2013-07-07 13:37:00,
2013-07-07 08:42:00,73.9,69.1,29.93,SSW,195,5.0,12.0,85,0.00,,,0.00,meteohub,2013-07-07 13:42:00,
2013-07-07 08:47:00,73.9,69.4,29.93,SSW,205,6.0,11.0,86,0.00,,,0.00,meteohub,2013-07-07 13:47:00,
2013-07-07 08:52:00,74.1,69.6,29.93,SSW,204,7.0,11.0,86,0.00,,,0.00,meteohub,2013-07-07 13:52:00,
2013-07-07 08:57:00,74.8,70.0,29.93,SW,221,10.0,10.0,85,0.00,,,0.00,meteohub,2013-07-07 13:57:00,
2013-07-07 09:02:00,75.0,69.8,29.93,SSW,207,7.0,10.0,84,0.00,,,0.00,meteohub,2013-07-07 14:02:00,
2013-07-07 09:07:00,75.4,70.2,29.93,SW,223,7.0,10.0,84,0.00,,,0.00,meteohub,2013-07-07 14:07:00,
2013-07-07 09:12:00,75.7,70.5,29.93,SSW,211,7.0,10.0,84,0.00,,,0.00,meteohub,2013-07-07 14:12:00,
2013-07-07 09:17:00,75.9,70.0,29.93,SSW,196,5.0,10.0,82,0.00,,,0.00,meteohub,2013-07-07 14:17:00,
2013-07-07 09:22:00,75.9,70.3,29.93,SSW,196,7.0,10.0,83,0.00,,,0.00,meteohub,2013-07-07 14:22:00,
2013-07-07 09:27:00,76.1,70.5,29.93,SSW,213,7.0,10.0,83,0.00,,,0.00,meteohub,2013-07-07 14:27:00,
2013-07-07 09:32:00,76.5,70.5,29.92,SSW,213,7.0,10.0,82,0.00,,,0.00,meteohub,2013-07-07 14:32:00,
2013-07-07 09:37:00,76.3,70.0,29.92,SSW,211,7.0,10.0,81,0.00,,,0.00,meteohub,2013-07-07 14:37:00,
2013-07-07 09:42:00,76.3,70.0,29.92,SSW,207,7.0,10.0,81,0.00,,,0.00,meteohub,2013-07-07 14:42:00,
2013-07-07 09:47:00,76.3,70.3,29.93,SW,218,5.0,11.0,82,0.00,,,0.00,meteohub,2013-07-07 14:47:00,
2013-07-07 09:52:00,76.3,70.3,29.93,SSW,208,7.0,11.0,82,0.00,,,0.00,meteohub,2013-07-07 14:52:00,
2013-07-07 09:57:00,76.3,70.3,29.92,SSW,193,7.0,11.0,82,0.00,,,0.00,meteohub,2013-07-07 14:57:00,
2013-07-07 10:02:00,76.3,70.3,29.92,South,188,6.0,11.0,82,0.00,,,0.00,meteohub,2013-07-07 15:02:00,
2013-07-07 10:07:00,76.5,70.9,29.93,SSW,196,5.0,11.0,83,0.00,,,0.00,meteohub,2013-07-07 15:07:00,
2013-07-07 10:12:00,76.5,70.9,29.93,South,188,6.0,10.0,83,0.00,,,0.00,meteohub,2013-07-07 15:12:00,
2013-07-07 10:17:00,76.5,70.9,29.92,SSW,192,4.0,11.0,83,0.00,,,0.00,meteohub,2013-07-07 15:17:00,
2013-07-07 10:22:00,76.8,70.9,29.92,SSW,197,6.0,11.0,82,0.00,,,0.00,meteohub,2013-07-07 15:22:00,
2013-07-07 10:27:00,77.4,71.4,29.92,South,184,8.0,11.0,82,0.00,,,0.00,meteohub,2013-07-07 15:27:00,
2013-07-07 10:32:00,77.4,71.1,29.93,South,171,7.0,11.0,81,0.00,,,0.00,meteohub,2013-07-07 15:32:00,
2013-07-07 10:37:00,77.5,71.2,29.92,SSW,193,9.0,11.0,81,0.00,,,0.00,meteohub,2013-07-07 15:37:00,
2013-07-07 10:42:00,77.7,71.4,29.92,South,188,6.0,12.0,81,0.00,,,0.00,meteohub,2013-07-07 15:42:00,
2013-07-07 10:47:00,78.1,71.4,29.93,SSW,194,8.0,12.0,80,0.00,,,0.00,meteohub,2013-07-07 15:47:00,
2013-07-07 10:52:00,78.4,71.4,29.92,SSW,196,7.0,12.0,79,0.00,,,0.00,meteohub,2013-07-07 15:52:00,
2013-07-07 10:57:00,79.0,71.6,29.92,South,171,7.0,12.0,78,0.00,,,0.00,meteohub,2013-07-07 15:57:00,
2013-07-07 11:02:00,79.0,71.6,29.92,SW,216,8.0,12.0,78,0.00,,,0.00,meteohub,2013-07-07 16:02:00,
2013-07-07 11:07:00,79.2,71.8,29.92,SSW,196,8.0,13.0,78,0.00,,,0.00,meteohub,2013-07-07 16:07:00,
2013-07-07 11:12:00,79.3,72.0,29.92,South,188,8.0,13.0,78,0.00,,,0.00,meteohub,2013-07-07 16:12:00,
2013-07-07 11:17:00,79.7,72.7,29.92,SSW,195,8.0,13.0,79,0.00,,,0.00,meteohub,2013-07-07 16:17:00,
2013-07-07 11:22:00,80.1,73.0,29.92,SSW,193,7.0,11.0,79,0.00,,,0.00,meteohub,2013-07-07 16:22:00,
2013-07-07 11:27:00,79.9,72.3,29.92,SSW,198,8.0,11.0,78,0.00,,,0.00,meteohub,2013-07-07 16:27:00,
2013-07-07 11:32:00,79.5,72.1,29.92,South,177,6.0,11.0,78,0.00,,,0.00,meteohub,2013-07-07 16:32:00,
2013-07-07 11:37:00,79.7,72.7,29.92,South,181,7.0,11.0,79,0.00,,,0.00,meteohub,2013-07-07 16:37:00,
2013-07-07 11:42:00,79.7,71.8,29.92,SSW,200,6.0,11.0,77,0.00,,,0.00,meteohub,2013-07-07 16:42:00,
2013-07-07 11:47:00,79.9,72.3,29.92,SSW,198,6.0,11.0,78,0.00,,,0.00,meteohub,2013-07-07 16:47:00,
2013-07-07 11:52:00,80.2,72.7,29.92,SSW,192,7.0,10.0,78,0.00,,,0.00,meteohub,2013-07-07 16:52:00,
2013-07-07 11:57:00,80.4,71.8,29.92,SSW,194,7.0,10.0,75,0.00,,,0.00,meteohub,2013-07-07 16:57:00,
2013-07-07 12:03:00,81.0,73.0,29.91,SW,227,5.0,11.0,77,0.00,,,0.00,meteohub,2013-07-07 17:03:00,
2013-07-07 12:08:00,81.1,72.5,29.92,SW,219,5.0,11.0,75,0.00,,,0.00,meteohub,2013-07-07 17:08:00,
2013-07-07 12:13:00,81.3,73.0,29.91,SSW,210,5.0,11.0,76,0.00,,,0.00,meteohub,2013-07-07 17:13:00,
2013-07-07 12:18:00,81.7,73.0,29.91,SSW,197,4.0,9.0,75,0.00,,,0.00,meteohub,2013-07-07 17:18:00,
2013-07-07 12:23:00,81.5,72.9,29.91,SSW,199,7.0,11.0,75,0.00,,,0.00,meteohub,2013-07-07 17:23:00,
2013-07-07 12:29:00,81.7,73.0,29.91,SSW,194,6.0,11.0,75,0.00,,,0.00,meteohub,2013-07-07 17:29:00,
2013-07-07 12:34:00,81.9,72.3,29.91,SSW,198,6.0,11.0,73,0.00,,,0.00,meteohub,2013-07-07 17:34:00,
2013-07-07 12:39:00,81.9,72.7,29.91,SSW,213,5.0,9.0,74,0.00,,,0.00,meteohub,2013-07-07 17:39:00,
2013-07-07 12:44:00,81.9,73.2,29.91,SSW,209,4.0,9.0,75,0.00,,,0.00,meteohub,2013-07-07 17:44:00,
2013-07-07 12:49:00,81.9,72.3,29.91,SSW,203,7.0,9.0,73,0.00,,,0.00,meteohub,2013-07-07 17:49:00,
2013-07-07 12:55:00,82.0,72.1,29.91,SSW,209,4.0,8.0,72,0.00,,,0.00,meteohub,2013-07-07 17:55:00,
2013-07-07 13:00:00,82.0,72.1,29.91,SW,220,8.0,10.0,72,0.00,,,0.00,meteohub,2013-07-07 18:00:00,
2013-07-07 13:05:00,82.0,72.5,29.91,South,174,4.0,10.0,73,0.00,,,0.00,meteohub,2013-07-07 18:05:00,
2013-07-07 13:10:00,82.0,72.5,29.91,SSW,202,6.0,10.0,73,0.00,,,0.00,meteohub,2013-07-07 18:10:00,
2013-07-07 13:15:00,81.9,72.0,29.91,SSW,211,6.0,9.0,72,0.00,,,0.00,meteohub,2013-07-07 18:15:00,
2013-07-07 13:21:00,81.9,72.0,29.91,SSW,207,4.0,9.0,72,0.00,,,0.00,meteohub,2013-07-07 18:21:00,
2013-07-07 13:26:00,81.9,72.3,29.91,SSW,209,7.0,9.0,73,0.00,,,0.00,meteohub,2013-07-07 18:26:00,
2013-07-07 13:31:00,82.0,71.8,29.91,SSW,213,7.0,11.0,71,0.00,,,0.00,meteohub,2013-07-07 18:31:00,
2013-07-07 13:36:00,82.4,72.0,29.91,SSW,209,3.0,11.0,71,0.00,,,0.00,meteohub,2013-07-07 18:36:00,
2013-07-07 13:41:00,82.9,73.0,29.91,SSW,200,7.0,9.0,72,0.00,,,0.00,meteohub,2013-07-07 18:41:00,
2013-07-07 13:47:00,83.5,73.6,29.90,SSW,194,5.0,9.0,72,0.00,,,0.00,meteohub,2013-07-07 18:47:00,
2013-07-07 13:52:00,83.5,72.3,29.91,SSW,200,8.0,8.0,69,0.00,,,0.00,meteohub,2013-07-07 18:52:00,
2013-07-07 13:57:00,82.9,72.1,29.91,SW,216,10.0,12.0,70,0.00,,,0.00,meteohub,2013-07-07 18:57:00,
2013-07-07 14:02:00,82.4,71.2,29.91,SSW,203,5.0,12.0,69,0.00,,,0.00,meteohub,2013-07-07 19:02:00,
2013-07-07 14:07:00,82.4,71.6,29.91,SSW,208,7.0,11.0,70,0.00,,,0.00,meteohub,2013-07-07 19:07:00,
2013-07-07 14:12:00,82.2,72.3,29.91,SSW,211,5.0,11.0,72,0.00,,,0.00,meteohub,2013-07-07 19:12:00,
2013-07-07 14:17:00,82.2,72.7,29.91,SSW,211,5.0,10.0,73,0.00,,,0.00,meteohub,2013-07-07 19:17:00,
2013-07-07 14:22:00,82.6,73.4,29.91,SSW,210,4.0,9.0,74,0.00,,,0.00,meteohub,2013-07-07 19:22:00,
2013-07-07 14:27:00,82.9,73.4,29.91,SSW,200,6.0,8.0,73,0.00,,,0.00,meteohub,2013-07-07 19:27:00,
2013-07-07 14:32:00,83.7,74.1,29.91,SW,215,6.0,9.0,73,0.00,,,0.00,meteohub,2013-07-07 19:32:00,
2013-07-07 14:37:00,84.0,73.2,29.91,South,188,6.0,9.0,70,0.00,,,0.00,meteohub,2013-07-07 19:37:00,
2013-07-07 14:42:00,84.6,73.2,29.90,SW,223,4.0,12.0,69,0.00,,,0.00,meteohub,2013-07-07 19:42:00,
2013-07-07 14:47:00,85.3,73.0,29.90,SW,215,11.0,13.0,67,0.00,,,0.00,meteohub,2013-07-07 19:47:00,
2013-07-07 14:52:00,84.9,72.3,29.90,SSW,203,7.0,13.0,66,0.00,,,0.00,meteohub,2013-07-07 19:52:00,
2013-07-07 14:57:00,84.4,72.7,29.89,SSW,194,7.0,13.0,68,0.00,,,0.00,meteohub,2013-07-07 19:57:00,
2013-07-07 15:02:00,84.2,72.5,29.89,South,175,5.0,13.0,68,0.00,,,0.00,meteohub,2013-07-07 20:02:00,
2013-07-07 15:07:00,84.0,73.2,29.89,South,175,8.0,13.0,70,0.00,,,0.00,meteohub,2013-07-07 20:07:00,
2013-07-07 15:12:00,84.0,73.2,29.89,SSW,205,8.0,10.0,70,0.00,,,0.00,meteohub,2013-07-07 20:12:00,
2013-07-07 15:17:00,84.2,72.9,29.89,SSW,198,7.0,10.0,69,0.00,,,0.00,meteohub,2013-07-07 20:17:00,
2013-07-07 15:22:00,84.7,73.9,29.89,SSW,205,7.0,10.0,70,0.00,,,0.00,meteohub,2013-07-07 20:22:00,
2013-07-07 15:27:00,85.5,73.8,29.88,SSW,199,6.0,12.0,68,0.00,,,0.00,meteohub,2013-07-07 20:27:00,
2013-07-07 15:32:00,85.5,73.8,29.88,South,186,9.0,12.0,68,0.00,,,0.00,meteohub,2013-07-07 20:32:00,
2013-07-07 15:37:00,85.3,73.0,29.88,SSW,198,11.0,12.0,67,0.00,,,0.00,meteohub,2013-07-07 20:37:00,
2013-07-07 15:42:00,85.5,73.8,29.88,SSW,201,8.0,12.0,68,0.00,,,0.00,meteohub,2013-07-07 20:42:00,
2013-07-07 15:47:00,85.6,74.3,29.88,SSW,208,7.0,12.0,69,0.00,,,0.00,meteohub,2013-07-07 20:47:00,
2013-07-07 15:52:00,85.8,73.2,29.88,South,191,10.0,13.0,66,0.00,,,0.00,meteohub,2013-07-07 20:52:00,
2013-07-07 15:57:00,86.0,73.2,29.88,SSW,209,4.0,13.0,66,0.00,,,0.00,meteohub,2013-07-07 20:57:00,
2013-07-07 16:02:00,86.2,73.0,29.88,SSW,194,8.0,13.0,65,0.00,,,0.00,meteohub,2013-07-07 21:02:00,
2013-07-07 16:07:00,86.2,73.4,29.88,SSW,203,9.0,13.0,66,0.00,,,0.00,meteohub,2013-07-07 21:07:00,
2013-07-07 16:12:00,85.8,72.7,29.88,SSW,198,7.0,13.0,65,0.00,,,0.00,meteohub,2013-07-07 21:12:00,
2013-07-07 16:17:00,86.0,72.3,29.88,South,186,9.0,16.0,64,0.00,,,0.00,meteohub,2013-07-07 21:17:00,
2013-07-07 16:22:00,86.4,73.2,29.88,South,180,8.0,16.0,65,0.00,,,0.00,meteohub,2013-07-07 21:22:00,
2013-07-07 16:27:00,86.5,74.3,29.88,SSW,201,7.0,13.0,67,0.00,,,0.00,meteohub,2013-07-07 21:27:00,
2013-07-07 16:32:00,86.2,73.4,29.88,SSW,205,5.0,13.0,66,0.00,,,0.00,meteohub,2013-07-07 21:32:00,
2013-07-07 16:37:00,85.6,73.4,29.88,SSW,200,6.0,12.0,67,0.00,,,0.00,meteohub,2013-07-07 21:37:00,
2013-07-07 16:42:00,85.3,73.6,29.88,SSW,208,7.0,12.0,68,0.00,,,0.00,meteohub,2013-07-07 21:42:00,
2013-07-07 16:47:00,84.9,73.6,29.88,SSW,196,7.0,11.0,69,0.00,,,0.00,meteohub,2013-07-07 21:47:00,
2013-07-07 16:52:00,84.6,72.9,29.88,SSW,194,9.0,11.0,68,0.00,,,0.00,meteohub,2013-07-07 21:52:00,
2013-07-07 16:57:00,84.6,73.2,29.88,SSW,212,4.0,11.0,69,0.00,,,0.00,meteohub,2013-07-07 21:57:00,
2013-07-07 17:02:00,84.6,73.2,29.88,SSW,196,7.0,11.0,69,0.00,,,0.00,meteohub,2013-07-07 22:02:00,
2013-07-07 17:07:00,84.4,73.6,29.88,SSW,198,3.0,10.0,70,0.00,,,0.00,meteohub,2013-07-07 22:07:00,
2013-07-07 17:12:00,84.6,74.5,29.87,SSW,200,4.0,10.0,72,0.00,,,0.00,meteohub,2013-07-07 22:12:00,
2013-07-07 17:17:00,84.6,74.1,29.87,SSW,197,6.0,10.0,71,0.00,,,0.00,meteohub,2013-07-07 22:17:00,
2013-07-07 17:22:00,85.5,74.5,29.87,SSW,202,6.0,8.0,70,0.00,,,0.00,meteohub,2013-07-07 22:22:00,
2013-07-07 17:27:00,85.8,73.6,29.87,South,188,5.0,8.0,67,0.00,,,0.00,meteohub,2013-07-07 22:27:00,
2013-07-07 17:32:00,85.5,73.2,29.87,SSW,206,5.0,8.0,67,0.00,,,0.00,meteohub,2013-07-07 22:32:00,
2013-07-07 17:37:00,84.9,72.7,29.87,South,180,4.0,8.0,67,0.00,,,0.00,meteohub,2013-07-07 22:37:00,
2013-07-07 17:42:00,84.7,73.4,29.87,South,188,2.0,8.0,69,0.00,,,0.00,meteohub,2013-07-07 22:42:00,
2013-07-07 17:47:00,84.6,73.2,29.87,South,189,5.0,7.0,69,0.00,,,0.00,meteohub,2013-07-07 22:47:00,
2013-07-07 17:52:00,84.6,73.2,29.86,South,184,0.0,8.0,69,0.00,,,0.00,meteohub,2013-07-07 22:52:00,
2013-07-07 17:57:00,84.6,73.8,29.87,South,184,5.0,8.0,70,0.00,,,0.00,meteohub,2013-07-07 22:57:00,
2013-07-07 18:02:00,84.6,74.1,29.87,South,190,3.0,8.0,71,0.00,,,0.00,meteohub,2013-07-07 23:02:00,
2013-07-07 18:07:00,84.4,74.3,29.87,South,189,4.0,7.0,72,0.00,,,0.00,meteohub,2013-07-07 23:07:00,
2013-07-07 18:12:00,84.0,73.9,29.86,South,189,3.0,8.0,72,0.00,,,0.00,meteohub,2013-07-07 23:12:00,
2013-07-07 18:17:00,83.8,73.8,29.87,SSW,193,3.0,9.0,72,0.00,,,0.00,meteohub,2013-07-07 23:17:00,
2013-07-07 18:22:00,83.7,74.5,29.87,South,187,3.0,9.0,74,0.00,,,0.00,meteohub,2013-07-07 23:22:00,
2013-07-07 18:27:00,83.3,73.8,29.87,SSW,200,4.0,9.0,73,0.00,,,0.00,meteohub,2013-07-07 23:27:00,
2013-07-07 18:32:00,83.1,73.9,29.87,SSW,197,5.0,9.0,74,0.00,,,0.00,meteohub,2013-07-07 23:32:00,
2013-07-07 18:37:00,82.9,74.1,29.87,SSW,196,4.0,9.0,75,0.00,,,0.00,meteohub,2013-07-07 23:37:00,
2013-07-07 18:42:00,82.9,74.1,29.87,South,190,3.0,7.0,75,0.00,,,0.00,meteohub,2013-07-07 23:42:00,
2013-07-07 18:47:00,83.1,74.3,29.86,South,190,1.0,6.0,75,0.00,,,0.00,meteohub,2013-07-07 23:47:00,
2013-07-07 18:52:00,82.9,74.1,29.87,South,182,5.0,6.0,75,0.00,,,0.00,meteohub,2013-07-07 23:52:00,
2013-07-07 18:58:00,83.1,74.3,29.87,South,186,5.0,8.0,75,0.00,,,0.00,meteohub,2013-07-07 23:58:00,
2013-07-07 19:03:00,82.9,73.8,29.87,South,190,4.0,9.0,74,0.00,,,0.00,meteohub,2013-07-08 00:03:00,
2013-07-07 19:08:00,82.6,73.8,29.87,South,188,5.0,9.0,75,0.00,,,0.00,meteohub,2013-07-08 00:08:00,
2013-07-07 19:13:00,82.0,73.4,29.87,South,185,4.0,8.0,75,0.00,,,0.00,meteohub,2013-07-08 00:13:00,
2013-07-07 19:18:00,81.7,73.4,29.87,South,185,3.0,8.0,76,0.00,,,0.00,meteohub,2013-07-08 00:18:00,
2013-07-07 19:24:00,81.5,73.2,29.87,South,190,4.0,7.0,76,0.00,,,0.00,meteohub,2013-07-08 00:24:00,
2013-07-07 19:29:00,81.5,73.2,29.87,SSW,193,4.0,8.0,76,0.00,,,0.00,meteohub,2013-07-08 00:29:00,
2013-07-07 19:34:00,81.7,73.4,29.87,SSW,194,5.0,8.0,76,0.00,,,0.00,meteohub,2013-07-08 00:34:00,
2013-07-07 19:39:00,81.5,73.2,29.87,SSW,196,4.0,8.0,76,0.00,,,0.00,meteohub,2013-07-08 00:39:00,
2013-07-07 19:44:00,81.5,72.9,29.87,SSW,196,7.0,7.0,75,0.00,,,0.00,meteohub,2013-07-08 00:44:00,
2013-07-07 19:50:00,81.7,72.5,29.87,South,190,3.0,8.0,74,0.00,,,0.00,meteohub,2013-07-08 00:50:00,
2013-07-07 19:55:00,81.3,72.7,29.87,South,190,6.0,10.0,75,0.00,,,0.00,meteohub,2013-07-08 00:55:00,
2013-07-07 20:00:00,81.0,72.7,29.87,South,190,3.0,8.0,76,0.00,,,0.00,meteohub,2013-07-08 01:00:00,
2013-07-07 20:05:00,80.8,72.1,29.87,SSW,192,3.0,7.0,75,0.00,,,0.00,meteohub,2013-07-08 01:05:00,
2013-07-07 20:10:00,80.4,72.5,29.87,SSW,192,4.0,7.0,77,0.00,,,0.00,meteohub,2013-07-08 01:10:00,
2013-07-07 20:15:00,80.1,72.1,29.87,SSW,193,4.0,7.0,77,0.00,,,0.00,meteohub,2013-07-08 01:15:00,
2013-07-07 20:21:00,79.9,72.3,29.87,South,188,6.0,6.0,78,0.00,,,0.00,meteohub,2013-07-08 01:21:00,
2013-07-07 20:26:00,79.5,72.1,29.87,South,188,4.0,7.0,78,0.00,,,0.00,meteohub,2013-07-08 01:26:00,
2013-07-07 20:31:00,79.0,71.6,29.87,South,188,3.0,7.0,78,0.00,,,0.00,meteohub,2013-07-08 01:31:00,
2013-07-07 20:36:00,78.8,71.4,29.87,South,188,2.0,7.0,78,0.00,,,0.00,meteohub,2013-07-08 01:36:00,
2013-07-07 20:42:00,78.6,71.2,29.88,South,185,3.0,7.0,78,0.00,,,0.00,meteohub,2013-07-08 01:42:00,
2013-07-07 20:47:00,78.4,71.4,29.88,South,185,5.0,7.0,79,0.00,,,0.00,meteohub,2013-07-08 01:47:00,
2013-07-07 20:52:00,78.1,71.1,29.88,South,185,4.0,7.0,79,0.00,,,0.00,meteohub,2013-07-08 01:52:00,
2013-07-07 20:57:00,77.5,70.9,29.88,South,185,4.0,7.0,80,0.00,,,0.00,meteohub,2013-07-08 01:57:00,
2013-07-07 21:02:00,77.5,71.2,29.88,South,184,6.0,7.0,81,0.00,,,0.00,meteohub,2013-07-08 02:02:00,
2013-07-07 21:07:00,77.2,70.9,29.88,South,184,2.0,8.0,81,0.00,,,0.00,meteohub,2013-07-08 02:07:00,
2013-07-07 21:12:00,76.8,70.9,29.88,South,188,3.0,8.0,82,0.00,,,0.00,meteohub,2013-07-08 02:12:00,
2013-07-07 21:17:00,76.8,70.9,29.89,South,188,3.0,8.0,82,0.00,,,0.00,meteohub,2013-07-08 02:17:00,
2013-07-07 21:22:00,76.8,70.9,29.89,South,188,2.0,6.0,82,0.00,,,0.00,meteohub,2013-07-08 02:22:00,
2013-07-07 21:28:00,76.6,71.1,29.90,South,188,3.0,6.0,83,0.00,,,0.00,meteohub,2013-07-08 02:28:00,
2013-07-07 21:33:00,76.8,71.2,29.90,South,188,0.0,6.0,83,0.00,,,0.00,meteohub,2013-07-08 02:33:00,
2013-07-07 21:38:00,76.5,71.2,29.90,South,188,0.0,6.0,84,0.00,,,0.00,meteohub,2013-07-08 02:38:00,
2013-07-07 21:43:00,76.3,71.4,29.90,South,188,0.0,5.0,85,0.00,,,0.00,meteohub,2013-07-08 02:43:00,
2013-07-07 21:48:00,75.9,71.1,29.90,South,188,0.0,3.0,85,0.00,,,0.00,meteohub,2013-07-08 02:48:00,
2013-07-07 21:54:00,75.9,71.1,29.91,South,188,0.0,3.0,85,0.00,,,0.00,meteohub,2013-07-08 02:54:00,
2013-07-07 21:59:00,75.7,71.2,29.91,South,188,0.0,3.0,86,0.00,,,0.00,meteohub,2013-07-08 02:59:00,
2013-07-07 22:04:00,75.7,71.2,29.90,South,188,0.0,3.0,86,0.00,,,0.00,meteohub,2013-07-08 03:04:00,
2013-07-07 22:09:00,75.7,71.2,29.91,South,188,2.0,3.0,86,0.00,,,0.00,meteohub,2013-07-08 03:09:00,
2013-07-07 22:14:00,75.7,70.9,29.90,South,188,1.0,3.0,85,0.00,,,0.00,meteohub,2013-07-08 03:14:00,
2013-07-07 22:20:00,75.6,71.1,29.90,South,188,0.0,3.0,86,0.00,,,0.00,meteohub,2013-07-08 03:20:00,
2013-07-07 22:25:00,75.6,71.1,29.90,South,188,0.0,3.0,86,0.00,,,0.00,meteohub,2013-07-08 03:25:00,
2013-07-07 22:30:00,75.4,70.9,29.90,South,188,0.0,2.0,86,0.00,,,0.00,meteohub,2013-07-08 03:30:00,
2013-07-07 22:35:00,75.0,70.5,29.90,South,188,1.0,1.0,86,0.00,,,0.00,meteohub,2013-07-08 03:35:00,
2013-07-07 22:40:00,74.7,70.5,29.90,South,188,0.0,1.0,87,0.00,,,0.00,meteohub,2013-07-08 03:40:00,
2013-07-07 22:46:00,74.5,70.3,29.90,South,188,1.0,3.0,87,0.00,,,0.00,meteohub,2013-07-08 03:46:00,
2013-07-07 22:51:00,74.5,70.7,29.91,South,188,0.0,3.0,88,0.00,,,0.00,meteohub,2013-07-08 03:51:00,
2013-07-07 22:56:00,74.1,70.3,29.91,South,188,0.0,3.0,88,0.00,,,0.00,meteohub,2013-07-08 03:56:00,
2013-07-07 23:01:00,73.9,70.2,29.91,South,188,0.0,2.0,88,0.00,,,0.00,meteohub,2013-07-08 04:01:00,
2013-07-07 23:02:00,73.9,70.2,29.91,South,188,0.0,2.0,88,0.00,,,0.00,meteohub,2013-07-08 04:02:00,
2013-07-07 23:05:00,73.9,70.2,29.91,South,188,0.0,1.0,88,0.00,,,0.00,meteohub,2013-07-08 04:05:00,
2013-07-07 23:07:00,73.9,70.5,29.91,South,188,1.0,1.0,89,0.00,,,0.00,meteohub,2013-07-08 04:07:00,
2013-07-07 23:12:00,73.8,70.3,29.91,South,188,0.0,2.0,89,0.00,,,0.00,meteohub,2013-07-08 04:12:00,
2013-07-07 23:17:00,73.8,70.3,29.91,South,188,0.0,2.0,89,0.00,,,0.00,meteohub,2013-07-08 04:17:00,
2013-07-07 23:22:00,73.9,70.5,29.91,South,188,0.0,3.0,89,0.00,,,0.00,meteohub,2013-07-08 04:22:00,
2013-07-07 23:28:00,73.9,70.5,29.91,South,188,0.0,4.0,89,0.00,,,0.00,meteohub,2013-07-08 04:28:00,
2013-07-07 23:33:00,73.9,70.5,29.91,South,188,0.0,4.0,89,0.00,,,0.00,meteohub,2013-07-08 04:33:00,
2013-07-07 23:38:00,74.1,70.3,29.91,South,188,0.0,4.0,88,0.00,,,0.00,meteohub,2013-07-08 04:38:00,
2013-07-07 23:43:00,74.3,70.2,29.91,South,188,0.0,3.0,87,0.00,,,0.00,meteohub,2013-07-08 04:43:00,
2013-07-07 23:48:00,74.5,70.0,29.91,South,188,2.0,4.0,86,0.00,,,0.00,meteohub,2013-07-08 04:48:00,
2013-07-07 23:54:00,74.7,69.8,29.91,South,188,1.0,5.0,85,0.00,,,0.00,meteohub,2013-07-08 04:54:00,
2013-07-07 23:59:00,75.0,69.8,29.91,South,188,2.0,5.0,84,0.00,,,0.00,meteohub,2013-07-08 04:59:00,